Time;durP1;ratioP1;P1;durP2;ratioP2;P2;SDS_P1;SDS_P2;PMS_P1;PMS_P2;Temp;Humidity;BMP_temperature;BMP_pressure;BME280_temperature;BME280_humidity;BME280_pressure;Samples;Min_cycle;Max_cycle;Signal;HPM_P1;HPM_P2
2023/07/01 00:01:43;;;;;;;6.38;2.25;;;;;;;17.91;53.39;100735.19;4974833;28;20026;-80
2023/07/01 00:04:08;;;;;;;4.90;1.90;;;;;;;18.12;53.51;100768.06;4974815;28;20030;-79
2023/07/01 00:06:34;;;;;;;5.50;2.13;;;;;;;18.08;53.97;100764.09;4974842;28;20026;-80
2023/07/01 00:08:59;;;;;;;5.72;2.22;;;;;;;17.90;54.55;100720.50;4974993;28;20054;-80
2023/07/01 00:11:24;;;;;;;5.15;1.90;;;;;;;18.08;53.74;100759.69;4974948;28;20034;-80
2023/07/01 00:13:50;;;;;;;6.82;2.35;;;;;;;18.09;54.05;100750.06;4974755;28;20027;-80
2023/07/01 00:16:15;;;;;;;5.78;1.90;;;;;;;18.10;54.11;100746.50;4974518;28;20496;-80
2023/07/01 00:18:42;;;;;;;5.03;1.85;;;;;;;18.09;53.83;100745.66;4974515;28;20114;-79
2023/07/01 00:21:07;;;;;;;7.43;2.50;;;;;;;18.06;54.02;100733.72;4974780;28;20019;-80
2023/07/01 00:23:33;;;;;;;5.93;2.47;;;;;;;18.03;54.06;100734.00;4974785;28;20041;-80
2023/07/01 00:25:58;;;;;;;7.50;2.25;;;;;;;18.01;54.47;100735.97;4973882;28;20392;-79
2023/07/01 00:28:24;;;;;;;5.05;2.25;;;;;;;17.97;54.20;100726.75;4974876;28;20049;-78
2023/07/01 00:30:49;;;;;;;6.43;2.22;;;;;;;17.94;54.55;100729.66;4974215;28;20051;-80
2023/07/01 00:33:14;;;;;;;6.70;2.17;;;;;;;17.68;54.52;100682.47;4974254;28;20035;-79
2023/07/01 00:35:40;;;;;;;6.72;2.20;;;;;;;17.86;54.95;100707.84;4974370;28;20065;-80
2023/07/01 00:38:06;;;;;;;4.55;1.73;;;;;;;17.93;55.00;100714.97;4974437;28;20030;-80
2023/07/01 00:40:31;;;;;;;6.00;2.53;;;;;;;17.88;54.72;100701.50;4974331;28;20062;-80
2023/07/01 00:42:56;;;;;;;5.45;2.17;;;;;;;17.71;55.72;100679.63;4974616;28;20033;-80
2023/07/01 00:45:21;;;;;;;3.90;1.85;;;;;;;17.83;55.37;100688.06;4973973;28;20495;-80
2023/07/01 00:47:47;;;;;;;4.57;1.95;;;;;;;17.94;55.59;100710.56;4974011;28;20027;-79
2023/07/01 00:50:14;;;;;;;5.32;2.00;;;;;;;17.69;55.71;100665.88;4974334;28;20050;-79
2023/07/01 00:52:40;;;;;;;8.13;2.63;;;;;;;17.62;56.50;100654.34;4974346;28;20031;-79
2023/07/01 00:55:06;;;;;;;8.77;2.10;;;;;;;17.93;56.58;100699.28;4974302;28;20206;-80
2023/07/01 00:57:32;;;;;;;6.00;2.15;;;;;;;17.91;56.37;100695.19;4974065;28;20030;-80
2023/07/01 00:59:57;;;;;;;7.40;2.22;;;;;;;17.90;56.75;100689.13;4974123;28;20469;-80
2023/07/01 01:02:29;;;;;;;5.82;2.20;;;;;;;17.87;56.65;100689.41;4973763;28;20531;-80
2023/07/01 01:05:10;;;;;;;;;;;;;;;17.93;56.82;100704.50;4974737;28;20474;-80
2023/07/01 01:08:00;;;;;;;6.35;2.40;;;;;;;17.89;58.34;100684.84;4974033;28;19921;-80
2023/07/01 01:10:27;;;;;;;5.78;2.25;;;;;;;17.80;59.23;100677.94;4973799;28;20053;-80
2023/07/01 01:12:57;;;;;;;7.00;2.40;;;;;;;17.80;59.04;100688.38;4973730;28;20077;-80
2023/07/01 01:15:25;;;;;;;8.68;2.70;;;;;;;17.47;59.28;100629.69;4973521;28;20030;-80
2023/07/01 01:17:52;;;;;;;7.95;2.38;;;;;;;17.82;59.84;100683.00;4973772;28;20034;-80
2023/07/01 01:20:20;;;;;;;6.35;2.50;;;;;;;17.75;60.22;100662.69;4973729;28;20113;-80
2023/07/01 01:22:55;;;;;;;7.25;2.50;;;;;;;17.78;60.79;100670.22;4973709;28;20023;-78
2023/07/01 01:25:28;;;;;;;5.43;2.13;;;;;;;17.81;61.21;100673.53;4973745;28;20034;-80
2023/07/01 01:27:55;;;;;;;6.78;2.53;;;;;;;17.69;60.97;100660.66;4973523;28;20058;-80
2023/07/01 01:30:23;;;;;;;6.55;2.40;;;;;;;17.74;60.95;100663.66;4973452;28;20034;-79
2023/07/01 01:32:48;;;;;;;6.03;2.42;;;;;;;17.74;61.36;100662.84;4973297;28;20034;-80
2023/07/01 01:35:14;;;;;;;4.55;2.22;;;;;;;17.71;61.45;100658.72;4973622;28;20031;-81
2023/07/01 01:37:47;;;;;;;6.05;2.45;;;;;;;17.70;61.47;100654.47;4975697;28;20031;-80
2023/07/01 01:40:21;;;;;;;7.45;2.30;;;;;;;17.68;61.93;100643.31;4977489;28;20026;-80
2023/07/01 01:42:47;;;;;;;3.97;2.30;;;;;;;17.70;62.34;100648.44;4977625;28;20058;-80
2023/07/01 01:45:16;;;;;;;5.70;2.40;;;;;;;17.49;62.45;100612.09;4977512;28;20065;-81
2023/07/01 01:47:43;;;;;;;5.90;2.38;;;;;;;17.58;62.73;100632.09;4977476;28;20027;-80
2023/07/01 01:50:11;;;;;;;4.93;2.30;;;;;;;17.58;63.17;100626.88;4977513;28;20038;-79
2023/07/01 01:52:39;;;;;;;7.32;2.33;;;;;;;17.61;63.04;100631.81;4977391;28;20389;-79
2023/07/01 01:55:07;;;;;;;5.32;2.40;;;;;;;17.63;63.65;100632.50;4977181;28;20150;-80
2023/07/01 01:57:33;;;;;;;6.35;2.30;;;;;;;17.61;64.04;100624.00;4977174;28;20088;-79
2023/07/01 01:59:58;;;;;;;6.78;2.58;;;;;;;17.55;63.80;100621.94;4977549;28;20055;-79
2023/07/01 02:02:23;;;;;;;5.80;2.65;;;;;;;17.42;63.98;100596.19;4977194;28;20425;-80
2023/07/01 02:04:49;;;;;;;8.60;2.53;;;;;;;17.57;63.75;100621.81;4977215;28;20114;-80
2023/07/01 02:07:14;;;;;;;7.68;2.63;;;;;;;17.56;64.19;100620.97;4977217;28;20030;-81
2023/07/01 02:09:39;;;;;;;7.90;2.60;;;;;;;17.54;65.76;100624.72;4976838;28;20031;-80
2023/07/01 02:12:05;;;;;;;5.82;2.53;;;;;;;17.49;66.67;100618.13;4977103;28;20141;-80
2023/07/01 02:14:31;;;;;;;5.03;2.45;;;;;;;17.25;67.38;100586.53;4977169;28;20070;-80
2023/07/01 02:16:57;;;;;;;5.78;2.50;;;;;;;17.40;70.44;100608.59;4976937;28;20023;-80
2023/07/01 02:19:22;;;;;;;5.70;2.55;;;;;;;17.31;73.74;100611.25;4976909;28;20027;-80
2023/07/01 02:21:48;;;;;;;5.50;2.67;;;;;;;17.19;75.67;100603.59;4976915;28;20049;-80
2023/07/01 02:24:13;;;;;;;7.82;2.45;;;;;;;17.12;77.63;100607.75;4976738;28;20469;-81
2023/07/01 02:26:38;;;;;;;6.47;2.55;;;;;;;17.07;78.77;100601.31;4958829;28;20515;-79
2023/07/01 02:29:04;;;;;;;7.93;2.78;;;;;;;16.79;79.62;100559.56;4976681;28;20535;-81
2023/07/01 02:31:29;;;;;;;5.50;2.22;;;;;;;16.96;81.36;100596.28;4976599;28;20122;-81
2023/07/01 02:34:02;;;;;;;7.47;2.92;;;;;;;16.73;82.12;100567.97;4976457;28;20062;-80
2023/07/01 02:36:28;;;;;;;5.07;2.42;;;;;;;16.64;82.80;100560.97;4976638;28;20019;-80
2023/07/01 02:38:53;;;;;;;7.47;2.72;;;;;;;16.78;84.77;100580.56;4976338;28;20029;-80
2023/07/01 02:41:19;;;;;;;9.00;3.38;;;;;;;16.76;84.35;100587.72;4959113;28;20054;-79
2023/07/01 02:43:44;;;;;;;8.38;2.47;;;;;;;16.71;85.14;100588.13;4976619;28;20423;-77
2023/07/01 02:46:09;;;;;;;5.05;2.58;;;;;;;16.58;86.87;100571.94;4958481;28;20042;-79
2023/07/01 02:48:35;;;;;;;5.03;2.63;;;;;;;16.28;88.24;100528.66;4974875;28;20138;-80
2023/07/01 02:51:00;;;;;;;7.30;2.85;;;;;;;16.31;89.06;100542.22;4976365;28;20106;-78
2023/07/01 02:53:25;;;;;;;4.85;2.33;;;;;;;16.37;90.07;100561.72;4976186;28;20349;-80
2023/07/01 02:55:51;;;;;;;7.65;2.72;;;;;;;16.29;89.94;100554.59;4976122;28;20062;-80
2023/07/01 02:58:16;;;;;;;6.13;2.83;;;;;;;16.44;89.82;100578.44;4976428;28;20027;-80
2023/07/01 03:00:41;;;;;;;5.47;2.53;;;;;;;16.19;90.40;100537.31;4976322;28;20165;-80
2023/07/01 03:03:07;;;;;;;6.45;2.60;;;;;;;16.10;90.01;100514.72;4976033;28;20377;-80
2023/07/01 03:05:36;;;;;;;5.90;2.75;;;;;;;16.48;90.61;100569.38;4976084;28;20031;-79
2023/07/01 03:08:01;;;;;;;5.07;2.75;;;;;;;16.30;91.22;100539.78;4976076;28;20046;-80
2023/07/01 03:10:27;;;;;;;6.10;2.45;;;;;;;16.50;91.54;100561.41;4976219;28;20022;-80
2023/07/01 03:12:53;;;;;;;4.95;2.72;;;;;;;16.49;91.96;100559.75;4975777;28;20062;-79
2023/07/01 03:15:19;;;;;;;6.38;2.67;;;;;;;16.48;92.43;100560.72;4976129;28;20077;-78
2023/07/01 03:17:44;;;;;;;5.60;2.78;;;;;;;16.46;93.02;100562.66;4975839;28;20113;-79
2023/07/01 03:20:22;;;;;;;6.82;2.53;;;;;;;16.22;93.51;100522.25;4975862;28;20121;-79
2023/07/01 03:22:49;;;;;;;5.35;2.60;;;;;;;16.26;94.26;100528.00;4975806;28;20082;-79
2023/07/01 03:25:15;;;;;;;5.75;2.65;;;;;;;16.28;95.59;100532.09;4975680;28;20027;-80
2023/07/01 03:27:41;;;;;;;4.15;2.35;;;;;;;16.34;95.81;100557.59;4975913;28;20117;-79
2023/07/01 03:30:13;;;;;;;4.40;2.47;;;;;;;16.15;95.68;100518.56;4975781;28;20062;-80
2023/07/01 03:32:47;;;;;;;5.90;2.55;;;;;;;16.32;96.30;100543.91;4975731;28;20034;-80
2023/07/01 03:35:14;;;;;;;4.38;2.55;;;;;;;16.31;96.63;100544.84;4975449;28;20062;-80
2023/07/01 03:37:41;;;;;;;7.93;2.88;;;;;;;16.19;96.81;100535.53;4975580;28;20086;-80
2023/07/01 03:40:13;;;;;;;5.53;2.83;;;;;;;15.98;97.10;100501.84;4975470;28;20145;-80
2023/07/01 03:42:42;;;;;;;6.95;2.47;;;;;;;16.26;97.18;100536.63;4975725;28;20034;-80
2023/07/01 03:45:10;;;;;;;5.35;2.67;;;;;;;16.28;98.10;100544.31;4975332;28;20543;-79
2023/07/01 03:47:40;;;;;;;7.07;2.72;;;;;;;16.10;98.83;100510.31;4958110;28;20394;-80
2023/07/01 03:50:09;;;;;;;5.68;2.80;;;;;;;15.92;100.00;100478.97;4975181;28;20018;-79
2023/07/01 03:52:38;;;;;;;5.55;3.00;;;;;;;16.08;100.00;100527.88;4975182;28;20045;-80
2023/07/01 03:55:05;;;;;;;10.13;3.15;;;;;;;15.96;100.00;100509.00;4975029;28;20658;-79
2023/07/01 03:57:31;;;;;;;6.18;2.58;;;;;;;15.96;100.00;100515.97;4975002;28;20066;-79
2023/07/01 03:59:56;;;;;;;6.35;2.67;;;;;;;15.82;100.00;100504.19;4974780;28;20031;-80
2023/07/01 04:02:22;;;;;;;5.55;3.03;;;;;;;16.01;100.00;100522.41;4975133;28;20023;-80
2023/07/01 04:04:48;;;;;;;4.80;2.58;;;;;;;15.84;100.00;100491.88;4974965;28;20023;-80
2023/07/01 04:07:13;;;;;;;5.72;2.72;;;;;;;15.97;100.00;100513.22;4974824;28;20054;-80
2023/07/01 04:09:39;;;;;;;6.32;2.88;;;;;;;15.78;100.00;100485.44;4975236;28;20659;-80
2023/07/01 04:12:05;;;;;;;4.43;2.80;;;;;;;15.88;100.00;100492.41;4974877;28;20023;-81
2023/07/01 04:14:30;;;;;;;5.30;3.03;;;;;;;15.96;100.00;100508.16;4975139;28;20026;-79
2023/07/01 04:16:56;;;;;;;4.57;3.10;;;;;;;15.91;100.00;100515.56;4974708;28;20029;-80
2023/07/01 04:19:21;;;;;;;5.60;3.03;;;;;;;15.85;100.00;100503.13;4974679;28;20385;-79
2023/07/01 04:21:47;;;;;;;4.72;2.70;;;;;;;15.63;100.00;100484.22;4974646;28;20519;-79
2023/07/01 04:24:12;;;;;;;5.45;3.00;;;;;;;15.48;100.00;100454.31;4974581;28;20035;-79
2023/07/01 04:26:38;;;;;;;5.93;3.38;;;;;;;15.68;100.00;100491.59;4974622;28;20041;-79
2023/07/01 04:29:04;;;;;;;4.85;2.95;;;;;;;15.60;100.00;100486.22;4957251;28;20041;-79
2023/07/01 04:31:29;;;;;;;5.57;2.90;;;;;;;15.62;100.00;100494.75;4974491;28;20046;-79
2023/07/01 04:33:55;;;;;;;4.45;3.22;;;;;;;15.63;100.00;100497.22;4974290;28;20472;-80
2023/07/01 04:36:21;;;;;;;4.82;2.88;;;;;;;15.41;100.00;100456.63;4957042;28;20089;-79
2023/07/01 04:38:46;;;;;;;4.18;2.80;;;;;;;15.36;100.00;100445.00;4957247;28;20118;-80
2023/07/01 04:41:11;;;;;;;4.28;2.90;;;;;;;15.59;100.00;100495.81;4964307;28;20023;-79
2023/07/01 04:43:37;;;;;;;5.43;3.17;;;;;;;15.36;100.00;100456.25;4954986;29;20477;-80
2023/07/01 04:46:03;;;;;;;4.68;3.00;;;;;;;15.29;100.00;100443.91;4955247;29;20023;-79
2023/07/01 04:48:29;;;;;;;5.28;3.10;;;;;;;15.52;100.00;100470.47;4955174;29;20102;-80
2023/07/01 04:50:54;;;;;;;4.53;2.83;;;;;;;15.52;100.00;100462.66;4954843;29;20027;-81
2023/07/01 04:53:19;;;;;;;4.38;2.97;;;;;;;15.47;100.00;100452.66;4954930;29;20078;-80
2023/07/01 04:55:45;;;;;;;3.83;3.05;;;;;;;15.35;100.00;100430.34;4937654;29;20031;-79
2023/07/01 04:58:10;;;;;;;5.50;2.72;;;;;;;15.58;100.00;100447.31;4955008;29;20031;-80
2023/07/01 05:00:37;;;;;;;4.90;2.85;;;;;;;15.69;100.00;100465.44;4954863;29;20103;-81
2023/07/01 05:03:04;;;;;;;3.92;2.70;;;;;;;15.76;100.00;100474.34;4955030;29;20023;-80
2023/07/01 05:05:29;;;;;;;5.72;2.90;;;;;;;15.39;100.00;100393.50;4954735;28;20495;-81
2023/07/01 05:07:54;;;;;;;5.38;3.15;;;;;;;15.75;100.00;100459.69;4954767;29;20106;-80
2023/07/01 05:10:20;;;;;;;5.03;2.92;;;;;;;15.81;100.00;100465.28;4954727;29;20082;-77
2023/07/01 05:12:45;;;;;;;5.95;2.88;;;;;;;15.84;100.00;100465.03;4954211;28;20027;-80
2023/07/01 05:15:11;;;;;;;4.38;2.97;;;;;;;15.84;100.00;100460.63;4954777;29;20027;-80
2023/07/01 05:17:37;;;;;;;5.20;2.95;;;;;;;15.75;100.00;100441.47;4954619;29;20030;-80
2023/07/01 05:20:05;;;;;;;4.30;2.75;;;;;;;15.87;100.00;100455.13;4954604;29;20373;-80
2023/07/01 05:22:30;;;;;;;4.82;2.70;;;;;;;15.73;100.00;100432.97;4954833;29;20432;-80
2023/07/01 05:24:56;;;;;;;5.65;2.90;;;;;;;15.89;100.00;100463.63;4954533;29;20027;-80
2023/07/01 05:27:21;;;;;;;4.97;2.70;;;;;;;15.86;100.00;100463.91;4954517;29;20085;-80
2023/07/01 05:29:46;;;;;;;6.22;2.97;;;;;;;15.88;100.00;100461.97;4954635;29;20103;-81
2023/07/01 05:32:12;;;;;;;5.00;2.85;;;;;;;15.88;100.00;100458.56;4954204;29;20151;-80
2023/07/01 05:34:37;;;;;;;4.60;2.75;;;;;;;15.86;100.00;100453.50;4954207;29;20031;-80
2023/07/01 05:37:03;;;;;;;5.03;2.70;;;;;;;15.65;100.00;100414.63;4954167;29;20115;-80
2023/07/01 05:39:30;;;;;;;7.05;2.60;;;;;;;15.91;100.00;100443.47;4954354;29;20027;-81
2023/07/01 05:41:55;;;;;;;5.28;2.40;;;;;;;16.28;100.00;100440.09;4954141;29;20503;-80
2023/07/01 05:44:20;;;;;;;5.22;2.65;;;;;;;16.50;100.00;100446.72;4936958;29;20110;-81
2023/07/01 05:46:46;;;;;;;4.80;2.63;;;;;;;16.61;100.00;100449.94;4954383;29;20023;-80
2023/07/01 05:49:11;;;;;;;3.25;2.08;;;;;;;16.62;100.00;100422.94;4954352;29;20031;-80
2023/07/01 05:51:37;;;;;;;4.60;1.90;;;;;;;16.82;100.00;100444.53;4954242;29;20031;-80
2023/07/01 05:54:02;;;;;;;3.40;2.25;;;;;;;16.88;100.00;100448.34;4936375;29;20035;-81
2023/07/01 05:56:29;;;;;;;3.00;2.13;;;;;;;16.88;100.00;100441.31;4936462;29;20196;-80
2023/07/01 05:58:55;;;;;;;4.63;2.50;;;;;;;16.75;100.00;100424.41;4954149;29;20023;-81
2023/07/01 06:01:20;;;;;;;3.70;2.30;;;;;;;16.86;100.00;100439.84;4954215;29;20034;-80
2023/07/01 06:03:45;;;;;;;2.85;2.17;;;;;;;16.47;100.00;100385.28;4954131;29;20046;-80
2023/07/01 06:06:12;;;;;;;3.20;2.03;;;;;;;16.76;100.00;100437.28;4953935;29;20037;-82
2023/07/01 06:08:37;;;;;;;2.65;1.92;;;;;;;16.94;100.00;100428.69;4953869;29;20023;-84
2023/07/01 06:11:03;;;;;;;3.45;2.30;;;;;;;16.99;100.00;100426.44;4936953;29;20169;-81
2023/07/01 06:13:28;;;;;;;3.53;2.20;;;;;;;17.06;100.00;100420.47;4954100;29;20031;-82
2023/07/01 06:15:53;;;;;;;4.05;2.17;;;;;;;17.22;100.00;100422.44;4954179;29;20481;-80
2023/07/01 06:18:22;;;;;;;3.50;2.45;;;;;;;16.61;100.00;100345.66;4953894;29;20027;-81
2023/07/01 06:20:56;;;;;;;3.53;2.17;;;;;;;17.32;100.00;100428.41;4935593;28;20041;-78
2023/07/01 06:23:22;;;;;;;2.90;2.08;;;;;;;17.42;100.00;100431.75;4956115;28;20105;-79
2023/07/01 06:25:47;;;;;;;4.85;2.28;;;;;;;16.93;100.00;100344.41;4957998;29;20110;-80
2023/07/01 06:28:13;;;;;;;4.15;2.08;;;;;;;17.44;100.00;100432.41;4957384;29;20131;-81
2023/07/01 06:30:39;;;;;;;5.18;2.47;;;;;;;17.43;100.00;100429.97;4957193;29;20106;-80
2023/07/01 06:33:06;;;;;;;3.20;1.90;;;;;;;17.35;100.00;100396.78;4957765;29;20031;-81
2023/07/01 06:35:32;;;;;;;4.20;1.85;;;;;;;17.38;100.00;100406.91;4957458;29;20027;-80
2023/07/01 06:37:58;;;;;;;3.22;2.08;;;;;;;17.49;100.00;100424.94;4956951;29;20093;-79
2023/07/01 06:40:23;;;;;;;3.95;2.10;;;;;;;17.48;100.00;100414.66;4958604;28;20047;-77
2023/07/01 06:42:48;;;;;;;2.95;1.95;;;;;;;17.50;100.00;100430.97;4957206;29;20408;-79
2023/07/01 06:45:14;;;;;;;3.40;2.08;;;;;;;17.48;100.00;100412.03;4957434;29;20462;-79
2023/07/01 06:47:39;;;;;;;2.50;1.70;;;;;;;17.52;100.00;100425.63;4957197;29;20029;-79
2023/07/01 06:50:08;;;;;;;2.30;1.80;;;;;;;17.54;100.00;100406.22;4957435;29;20151;-79
2023/07/01 06:52:33;;;;;;;4.03;2.22;;;;;;;17.58;100.00;100418.00;4956964;29;20081;-78
2023/07/01 06:54:58;;;;;;;2.95;1.80;;;;;;;17.58;100.00;100404.13;4957014;29;20485;-79
2023/07/01 06:57:24;;;;;;;3.80;1.80;;;;;;;17.64;100.00;100393.06;4956770;29;20053;-77
2023/07/01 06:59:49;;;;;;;3.63;1.80;;;;;;;17.93;99.57;100411.09;4956793;29;20389;-80
2023/07/01 07:02:15;;;;;;;2.58;1.70;;;;;;;17.87;99.64;100396.03;4956985;29;20106;-78
2023/07/01 07:04:43;;;;;;;3.08;1.50;;;;;;;17.93;99.96;100417.13;4956694;29;20157;-78
2023/07/01 07:07:08;;;;;;;2.53;1.77;;;;;;;17.88;100.00;100419.38;4956575;28;20035;-78
2023/07/01 07:09:33;;;;;;;3.10;1.75;;;;;;;17.73;100.00;100400.03;4956809;29;20034;-78
2023/07/01 07:12:00;;;;;;;2.97;1.70;;;;;;;17.85;100.00;100408.41;4956670;29;20035;-80
2023/07/01 07:14:25;;;;;;;2.75;1.85;;;;;;;17.80;100.00;100408.03;4956453;29;20027;-79
2023/07/01 07:16:52;;;;;;;2.85;1.70;;;;;;;17.65;100.00;100392.91;4956506;29;20038;-80
2023/07/01 07:19:17;;;;;;;1.95;1.70;;;;;;;17.87;100.00;100409.91;4956595;29;20042;-80
2023/07/01 07:21:42;;;;;;;3.38;2.20;;;;;;;17.70;100.00;100408.19;4956286;28;20027;-77
2023/07/01 07:24:08;;;;;;;3.20;1.70;;;;;;;17.75;100.00;100411.94;4956473;29;20074;-78
2023/07/01 07:26:33;;;;;;;3.53;2.05;;;;;;;17.66;100.00;100396.34;4956499;29;20027;-75
2023/07/01 07:28:59;;;;;;;2.83;1.98;;;;;;;17.60;100.00;100410.84;4956068;29;20377;-77
2023/07/01 07:31:24;;;;;;;4.50;2.10;;;;;;;17.24;100.00;100352.66;4956278;29;20055;-76
2023/07/01 07:33:50;;;;;;;2.70;1.80;;;;;;;17.46;100.00;100390.50;4956284;29;20563;-78
2023/07/01 07:36:15;;;;;;;3.40;1.90;;;;;;;17.64;100.00;100408.75;4955602;28;20436;-80
2023/07/01 07:38:40;;;;;;;5.40;2.53;;;;;;;17.53;100.00;100383.69;4955894;29;20393;-78
2023/07/01 07:41:06;;;;;;;3.55;2.17;;;;;;;17.76;100.00;100408.38;4956154;29;20031;-78
2023/07/01 07:43:31;;;;;;;3.55;2.40;;;;;;;17.82;100.00;100385.22;4956170;29;20083;-76
2023/07/01 07:45:56;;;;;;;4.05;2.03;;;;;;;17.95;100.00;100393.47;4955962;29;20027;-79
2023/07/01 07:48:22;;;;;;;3.17;2.03;;;;;;;17.77;100.00;100364.78;4955749;29;20544;-78
2023/07/01 07:50:47;;;;;;;3.83;1.98;;;;;;;17.68;100.00;100366.50;4956106;29;20031;-78
2023/07/01 07:53:13;;;;;;;3.65;2.00;;;;;;;17.87;100.00;100396.84;4955671;29;20098;-79
2023/07/01 07:55:39;;;;;;;4.38;2.35;;;;;;;17.77;100.00;100398.72;4955876;29;20031;-79
2023/07/01 07:58:04;;;;;;;4.13;2.10;;;;;;;17.86;100.00;100397.00;4955882;29;20114;-79
2023/07/01 08:00:30;;;;;;;2.95;2.03;;;;;;;17.80;100.00;100380.16;4937240;29;20463;-76
2023/07/01 08:02:55;;;;;;;3.22;1.85;;;;;;;18.04;100.00;100390.75;4956400;29;20385;-78
2023/07/01 08:05:25;;;;;;;4.68;2.13;;;;;;;18.13;100.00;100396.00;4956124;29;20034;-77
2023/07/01 08:07:50;;;;;;;3.70;2.45;;;;;;;18.22;100.00;100395.06;4955656;28;20019;-78
2023/07/01 08:10:16;;;;;;;2.75;2.13;;;;;;;18.25;100.00;100399.97;4955485;29;20176;-81
2023/07/01 08:12:41;;;;;;;3.45;2.67;;;;;;;17.87;100.00;100341.97;4955422;29;20425;-80
2023/07/01 08:15:07;;;;;;;3.47;2.40;;;;;;;18.01;100.00;100361.50;4955507;29;20031;-81
2023/07/01 08:17:32;;;;;;;3.50;2.35;;;;;;;18.06;100.00;100372.28;4955307;29;20023;-81
2023/07/01 08:19:58;;;;;;;3.05;2.53;;;;;;;18.16;100.00;100375.59;4955259;29;20042;-78
2023/07/01 08:22:24;;;;;;;3.58;2.33;;;;;;;18.42;100.00;100385.19;4955385;28;20030;-78
2023/07/01 08:24:49;;;;;;;4.15;2.50;;;;;;;18.39;100.00;100378.50;4974430;28;20097;-80
2023/07/01 08:27:14;;;;;;;3.75;2.38;;;;;;;18.53;100.00;100371.81;4974820;28;20547;-80
2023/07/01 08:29:40;;;;;;;4.35;2.38;;;;;;;18.88;100.00;100387.31;4974664;28;20552;-84
2023/07/01 08:32:05;;;;;;;4.55;2.60;;;;;;;18.81;100.00;100368.00;4957178;28;20055;-81
2023/07/01 08:34:35;;;;;;;4.15;2.20;;;;;;;18.90;100.00;100366.22;4974939;28;20031;-82
2023/07/01 08:37:00;;;;;;;3.17;2.20;;;;;;;18.99;100.00;100386.19;4956603;28;20125;-82
2023/07/01 08:39:26;;;;;;;2.88;1.88;;;;;;;18.77;100.00;100343.13;4974243;28;20085;-81
2023/07/01 08:41:57;;;;;;;2.17;1.70;;;;;;;18.94;100.00;100356.25;4957280;28;20036;-81
2023/07/01 08:44:25;;;;;;;3.13;1.77;;;;;;;19.10;100.00;100385.06;4974323;28;20038;-82
2023/07/01 08:46:53;;;;;;;2.40;1.65;;;;;;;19.11;100.00;100363.94;4973273;28;20105;-81
2023/07/01 08:49:21;;;;;;;3.80;1.40;;;;;;;19.20;100.00;100385.72;4974493;28;20091;-78
2023/07/01 08:51:54;;;;;;;2.65;1.55;;;;;;;18.92;100.00;100338.09;4974226;28;20048;-80
2023/07/01 08:54:20;;;;;;;1.75;1.42;;;;;;;19.01;100.00;100336.31;4973991;28;20029;-80
2023/07/01 08:56:49;;;;;;;3.03;1.70;;;;;;;19.17;100.00;100363.31;4973971;28;20027;-80
2023/07/01 08:59:15;;;;;;;2.40;1.58;;;;;;;18.83;100.00;100339.88;4973821;28;20054;-79
2023/07/01 09:01:43;;;;;;;2.45;1.63;;;;;;;19.02;100.00;100378.00;4973982;28;20091;-81
2023/07/01 09:04:08;;;;;;;3.38;1.63;;;;;;;18.99;100.00;100380.94;4973617;28;20035;-83
2023/07/01 09:06:33;;;;;;;1.33;1.20;;;;;;;18.85;100.00;100343.16;4974335;28;20061;-82
2023/07/01 09:09:00;;;;;;;4.40;1.70;;;;;;;19.15;100.00;100380.94;4973189;28;20039;-78
2023/07/01 09:11:25;;;;;;;2.65;1.60;;;;;;;19.09;100.00;100358.06;4956364;28;20460;-79
2023/07/01 09:13:58;;;;;;;2.97;1.60;;;;;;;19.10;100.00;100351.84;4955873;28;20085;-79
2023/07/01 09:16:34;;;;;;;2.00;1.50;;;;;;;19.45;100.00;100379.47;4973962;28;20034;-78
2023/07/01 09:19:07;;;;;;;2.33;1.58;;;;;;;19.61;100.00;100367.38;4973780;28;20042;-80
2023/07/01 09:21:33;;;;;;;1.77;1.08;;;;;;;19.59;100.00;100333.50;4974041;28;20858;-80
2023/07/01 09:24:02;;;;;;;9.02;1.83;;;;;;;19.76;97.80;100360.47;4973681;28;20463;-80
2023/07/01 09:26:30;;;;;;;1.27;1.10;;;;;;;19.50;99.19;100342.31;4973649;28;20432;-79
2023/07/01 09:28:57;;;;;;;1.55;1.10;;;;;;;19.81;97.94;100367.84;4973642;28;20463;-79
2023/07/01 09:31:24;;;;;;;2.10;1.10;;;;;;;19.85;99.38;100362.06;4973550;28;20365;-81
2023/07/01 09:33:58;;;;;;;0.95;0.93;;;;;;;19.86;100.00;100374.22;4955625;28;20073;-79
2023/07/01 09:36:28;;;;;;;1.40;0.93;;;;;;;19.85;99.16;100366.50;4973764;28;20080;-79
2023/07/01 09:38:54;;;;;;;1.48;1.10;;;;;;;19.62;99.47;100361.97;4973353;28;20038;-78
2023/07/01 09:41:23;;;;;;;2.28;1.13;;;;;;;19.19;100.00;100316.03;4973586;28;20376;-81
2023/07/01 09:43:48;;;;;;;1.38;1.17;;;;;;;19.22;100.00;100341.03;4973781;28;20395;-82
2023/07/01 09:46:14;;;;;;;2.58;1.10;;;;;;;18.98;100.00;100294.78;4973407;28;20023;-82
2023/07/01 09:48:51;;;;;;;1.25;1.00;;;;;;;19.52;100.00;100363.09;4973484;28;20027;-84
2023/07/01 09:51:17;;;;;;;1.65;1.00;;;;;;;19.72;100.00;100362.59;4973613;28;20022;-82
2023/07/01 09:53:43;;;;;;;1.30;1.00;;;;;;;19.71;100.00;100360.16;4973241;28;20478;-80
2023/07/01 09:56:08;;;;;;;1.50;1.02;;;;;;;19.70;100.00;100355.91;4973147;28;20070;-80
2023/07/01 09:58:34;;;;;;;2.40;1.10;;;;;;;19.65;100.00;100353.78;4975262;28;20064;-81
2023/07/01 10:01:00;;;;;;;1.67;1.10;;;;;;;19.74;100.00;100363.25;4959945;28;20038;-79
2023/07/01 10:03:26;;;;;;;1.80;1.02;;;;;;;19.79;100.00;100336.56;4977300;28;20025;-80
2023/07/01 10:05:52;;;;;;;1.45;1.13;;;;;;;19.95;98.67;100340.91;4977401;28;20093;-83
2023/07/01 10:08:18;;;;;;;2.03;1.17;;;;;;;19.92;99.79;100333.41;4977236;28;20019;-81
2023/07/01 10:10:44;;;;;;;1.85;1.25;;;;;;;19.91;99.87;100305.56;4976820;28;20533;-78
2023/07/01 10:13:11;;;;;;;1.13;1.02;;;;;;;20.19;99.26;100334.78;4976880;28;20472;-80
2023/07/01 10:15:39;;;;;;;2.03;1.20;;;;;;;20.12;99.22;100355.59;4959040;28;20070;-79
2023/07/01 10:18:22;;;;;;;1.70;1.30;;;;;;;19.96;99.75;100355.66;4977038;28;20081;-82
2023/07/01 10:20:47;;;;;;;2.03;1.30;;;;;;;19.67;100.00;100317.78;4976973;28;20027;-79
2023/07/01 10:23:13;;;;;;;1.65;1.25;;;;;;;19.67;100.00;100345.78;4959422;28;20046;-80
2023/07/01 10:25:39;;;;;;;1.50;1.17;;;;;;;18.46;100.00;100172.09;4965332;23;20062;-76
2023/07/01 10:28:34;;;;;;;1.55;1.35;;;;;;;19.35;100.00;100328.25;4977110;28;20033;-81
2023/07/01 10:31:02;;;;;;;2.65;1.65;;;;;;;19.28;100.00;100348.25;4976631;28;20043;-81
2023/07/01 10:33:30;;;;;;;2.17;1.38;;;;;;;19.36;100.00;100337.75;4976721;28;20054;-79
2023/07/01 10:36:04;;;;;;;2.22;1.40;;;;;;;19.52;100.00;100342.16;4976500;28;20062;-78
2023/07/01 10:38:30;;;;;;;2.55;1.90;;;;;;;19.56;100.00;100317.28;4976711;28;20389;-78
2023/07/01 10:40:56;;;;;;;3.28;1.50;;;;;;;19.85;100.00;100338.50;4976375;28;20102;-78
2023/07/01 10:43:23;;;;;;;1.60;1.27;;;;;;;20.02;100.00;100350.56;4976469;28;20038;-79
2023/07/01 10:46:13;;;;;;;2.83;1.50;;;;;;;20.24;100.00;100335.06;4976465;28;20042;-79
2023/07/01 10:48:39;;;;;;;3.65;1.70;;;;;;;20.36;100.00;100341.59;4976357;28;20062;-79
2023/07/01 10:51:12;;;;;;;1.88;1.30;;;;;;;20.54;98.71;100320.34;4976660;28;20038;-80
2023/07/01 10:53:57;;;;;;;2.90;1.42;;;;;;;21.01;98.05;100341.19;4957622;28;20373;-81
2023/07/01 10:56:23;;;;;;;2.08;1.70;;;;;;;21.05;94.93;100310.16;4976460;28;20031;-80
2023/07/01 10:59:22;;;;;;;3.03;2.15;;;;;;;21.39;93.97;100335.97;4976117;28;20034;-76
2023/07/01 11:01:52;;;;;;;2.65;1.80;;;;;;;21.38;94.32;100315.97;4976545;28;20081;-76
2023/07/01 11:04:19;;;;;;;3.33;2.20;;;;;;;21.53;93.90;100329.09;4976146;28;20465;-77
2023/07/01 11:06:49;;;;;;;5.78;2.25;;;;;;;21.65;91.08;100341.63;4976279;28;20031;-77
2023/07/01 11:09:16;;;;;;;3.13;2.43;;;;;;;21.41;91.72;100305.09;4975406;28;20153;-78
2023/07/01 11:11:42;;;;;;;4.57;2.28;;;;;;;21.57;89.67;100310.19;4975902;28;20842;-77
2023/07/01 11:14:09;;;;;;;4.45;3.13;;;;;;;21.74;91.93;100337.09;4976160;28;20031;-78
2023/07/01 11:16:36;;;;;;;3.75;2.92;;;;;;;21.87;89.47;100336.47;4976012;28;20027;-77
2023/07/01 11:19:07;;;;;;;5.00;3.75;;;;;;;21.60;90.07;100306.38;4975714;28;20035;-80
2023/07/01 11:21:33;;;;;;;5.18;3.97;;;;;;;21.67;89.88;100302.03;4975992;28;20026;-78